Maersk Sheerness — 9V5246 — position and weather

sailwx.info

Track history (hours):
 
Tides and Currents Weather Stations Pressure Air Temp Water Temp Dewpoint Dewpoint Depression Visibility Wind Speed Wind Dir Waves Ship Positions

Maersk Sheerness

Last reported at 2018-Feb-21 22:49 UTC. Time now 2018-Feb-22 13:07 UTC.
Position N 36°51' W 075°52'.

Length 335 m; draft 12.5 m.

Type: Ship (hazmat cat A). MMSI: 563001100.

Date/timePositionNaut miles runAvg speedWind from/ knotsBaromVisibWave heightAir tempDewpointWater temp
2018-Feb-21 22:49N 36°51' W 075°52'3 9.4
2018-Feb-21 22:30N 36°54' W 075°54'5 9.3
2018-Feb-21 22:00N 36°57' W 075°58'611.0
2018-Feb-21 21:30N 37°01' W 076°03'815.0
2018-Feb-21 21:00N 37°07' W 076°08'814.0
2018-Feb-21 20:27N 37°15' W 076°08'914.6
2018-Feb-21 19:52N 37°23' W 076°05'2913.9
2018-Feb-21 17:45N 37°52' W 076°09'816.6
2018-Feb-21 17:16N 38°00' W 076°12'517.3
2018-Feb-21 16:58N 38°06' W 076°13'817.1
2018-Feb-21 16:28N 38°14' W 076°15'3116.6
2018-Feb-21 14:36N 38°44' W 076°26'315.1
2018-Feb-21 14:26N 38°46' W 076°26'512.6
2018-Feb-21 14:00N 38°51' W 076°24'612.1
2018-Feb-21 13:30N 38°57' W 076°23'4 8.0
2018-Feb-21 13:00N 39°01' W 076°23'4 7.1
2018-Feb-21 12:30N 39°05' W 076°24'4 8.2
2018-Feb-21 12:00N 39°09' W 076°25'5 9.0
2018-Feb-21 11:29N 39°12' W 076°29'3 6.7
2018-Feb-21 11:00N 39°14' W 076°32'1 2.1
2018-Feb-21 10:30N 39°15' W 076°32'0 0.3
2018-Feb-21 10:00N 39°15' W 076°32'0 0.0
2018-Feb-21 09:30N 39°15' W 076°32'0 0.0
2018-Feb-21 09:00N 39°15' W 076°32'0 0.0
2018-Feb-21 08:30N 39°15' W 076°32'0 0.0
2018-Feb-21 08:00N 39°15' W 076°32'0 0.0
2018-Feb-21 07:30N 39°15' W 076°32'0 0.0
2018-Feb-21 07:00N 39°15' W 076°32'0 0.0
2018-Feb-21 06:30N 39°15' W 076°32'0 0.0
2018-Feb-21 06:00N 39°15' W 076°32'0 0.0
2018-Feb-21 05:30N 39°15' W 076°32'0 0.0
2018-Feb-21 05:00N 39°15' W 076°32'0 0.0
2018-Feb-21 04:30N 39°15' W 076°32'0 0.0
2018-Feb-21 04:00N 39°15' W 076°32'0 0.0
2018-Feb-21 03:30N 39°15' W 076°32'0 0.0
2018-Feb-21 03:00N 39°15' W 076°32'0 0.0
2018-Feb-21 02:30N 39°15' W 076°32'0 0.0
2018-Feb-21 01:57N 39°15' W 076°32'0 0.0
2018-Feb-21 01:30N 39°15' W 076°32'0 0.0
2018-Feb-21 01:00N 39°15' W 076°32'0 0.0
2018-Feb-21 00:30N 39°15' W 076°32'0 0.0
2018-Feb-21 00:00N 39°15' W 076°32'0 0.0
2018-Feb-20 23:30N 39°15' W 076°32'0 0.0
2018-Feb-20 22:57N 39°15' W 076°32'0 0.0
2018-Feb-20 22:30N 39°15' W 076°32'0 0.0
2018-Feb-20 22:00N 39°15' W 076°32'0 0.0
2018-Feb-20 21:30N 39°15' W 076°32'0 0.0
2018-Feb-20 21:00N 39°15' W 076°32'0 0.0
2018-Feb-20 20:30N 39°15' W 076°32'0 0.0
2018-Feb-20 20:00N 39°15' W 076°32'0 0.0
2018-Feb-20 19:30N 39°15' W 076°32'0 0.0
2018-Feb-20 19:00N 39°15' W 076°32'0 0.0
2018-Feb-20 18:30N 39°15' W 076°32'0 0.0
2018-Feb-20 17:59N 39°15' W 076°32'0 0.0
2018-Feb-20 17:29N 39°15' W 076°32'0 0.0
2018-Feb-20 16:59N 39°15' W 076°32'0 0.0
2018-Feb-20 16:29N 39°15' W 076°32'0 0.0
2018-Feb-20 15:59N 39°15' W 076°32'0 0.0
2018-Feb-20 15:29N 39°15' W 076°32'0 0.0
2018-Feb-20 14:59N 39°15' W 076°32'0 0.0
2018-Feb-20 14:29N 39°15' W 076°32'0 0.0
2018-Feb-20 14:00N 39°15' W 076°32'0 0.0
2018-Feb-20 13:30N 39°15' W 076°32'0 1.0
2018-Feb-20 13:00N 39°14' W 076°33'0 0.4
2018-Feb-20 12:30N 39°15' W 076°33'0 0.8
2018-Feb-20 12:00N 39°15' W 076°33'0 0.0
2018-Feb-20 11:30N 39°15' W 076°33'0 0.0
2018-Feb-20 11:00N 39°15' W 076°33'0 0.0
2018-Feb-20 10:30N 39°15' W 076°33'0 0.0
2018-Feb-20 10:00N 39°15' W 076°33'0 0.0
2018-Feb-20 09:30N 39°15' W 076°33'0 0.0
2018-Feb-20 09:00N 39°15' W 076°33'0 0.0
2018-Feb-20 08:30N 39°15' W 076°33'0 0.0
2018-Feb-20 08:00N 39°15' W 076°33'0 0.0
2018-Feb-20 07:30N 39°15' W 076°33'0 0.0
2018-Feb-20 07:00N 39°15' W 076°33'0 0.0
2018-Feb-20 06:30N 39°15' W 076°33'0 0.0
2018-Feb-20 06:00N 39°15' W 076°33'0 0.0
2018-Feb-20 05:30N 39°15' W 076°33'0 0.0
2018-Feb-20 05:00N 39°15' W 076°33'0 0.0
2018-Feb-20 04:30N 39°15' W 076°33'0 0.0
2018-Feb-20 04:00N 39°15' W 076°33'0 0.0
2018-Feb-20 03:30N 39°15' W 076°33'0 0.0
2018-Feb-20 03:00N 39°15' W 076°33'0 0.0
2018-Feb-20 02:30N 39°15' W 076°33'0 0.0
2018-Feb-20 02:00N 39°15' W 076°33'0 0.0
2018-Feb-20 01:30N 39°15' W 076°33'0 0.0
2018-Feb-20 01:00N 39°15' W 076°33'0 0.0
2018-Feb-20 00:30N 39°15' W 076°33'0 0.0
2018-Feb-20 00:00N 39°15' W 076°33'0 0.0
2018-Feb-19 23:30N 39°15' W 076°33'0 0.0
2018-Feb-19 23:00N 39°15' W 076°33'0 0.0
2018-Feb-19 22:30N 39°15' W 076°33'0 0.0
2018-Feb-19 22:00N 39°15' W 076°33'0 0.0
2018-Feb-19 21:30N 39°15' W 076°33'0 0.0
2018-Feb-19 21:00N 39°15' W 076°33'0 0.0
2018-Feb-19 20:30N 39°15' W 076°33'0 0.0
2018-Feb-19 20:00N 39°15' W 076°33'0 0.0
2018-Feb-19 19:30N 39°15' W 076°33'0 0.0
2018-Feb-19 19:00N 39°15' W 076°33'0 0.0
2018-Feb-19 18:30N 39°15' W 076°33'0 0.0
2018-Feb-19 18:00N 39°15' W 076°33'0 0.0
2018-Feb-19 17:30N 39°15' W 076°33'0 0.0
2018-Feb-19 17:00N 39°15' W 076°33'0 0.0
2018-Feb-19 16:30N 39°15' W 076°33'0 0.0
2018-Feb-19 16:00N 39°15' W 076°33'0 0.0
2018-Feb-19 15:30N 39°15' W 076°33'0 0.0
2018-Feb-19 15:00N 39°15' W 076°33'0 0.0
2018-Feb-19 14:30N 39°15' W 076°33'0 0.0
2018-Feb-19 14:00N 39°15' W 076°33'0 0.0
2018-Feb-19 13:30N 39°15' W 076°33'0 0.0
2018-Feb-19 13:00N 39°15' W 076°33'0 0.0
2018-Feb-19 12:30N 39°15' W 076°33'0 0.0
2018-Feb-19 12:00N 39°15' W 076°33'0 0.0
2018-Feb-19 11:30N 39°15' W 076°33'0 0.0
2018-Feb-19 11:00N 39°15' W 076°33'0 0.0
2018-Feb-19 10:30N 39°15' W 076°33'0 0.0
2018-Feb-19 09:57N 39°15' W 076°33'0 0.0
2018-Feb-19 09:30N 39°15' W 076°33'0 0.0
2018-Feb-19 09:00N 39°15' W 076°33'0 0.0
2018-Feb-19 08:30N 39°15' W 076°33'0 0.0
2018-Feb-19 07:57N 39°15' W 076°33'0 0.0
2018-Feb-19 07:27N 39°15' W 076°33'0 0.0
2018-Feb-19 06:59N 39°15' W 076°33'0 0.0
2018-Feb-19 06:27N 39°15' W 076°33'0 0.0
2018-Feb-19 05:57N 39°15' W 076°33'0 0.0
2018-Feb-19 05:27N 39°15' W 076°33'0 0.0
2018-Feb-19 04:56N 39°15' W 076°33'0 0.0
2018-Feb-19 04:14N 39°15' W 076°33'0 0.0
2018-Feb-19 03:59N 39°15' W 076°33'0 0.0
2018-Feb-19 03:26N 39°15' W 076°33'0 0.0
2018-Feb-19 02:57N 39°15' W 076°33'0 0.0
2018-Feb-19 02:30N 39°15' W 076°33'0 0.0
2018-Feb-19 01:59N 39°15' W 076°33'0 0.0
2018-Feb-19 01:29N 39°15' W 076°33'0 0.0
2018-Feb-19 00:59N 39°15' W 076°33'0 0.0
2018-Feb-19 00:29N 39°15' W 076°33'0 0.0
2018-Feb-18 23:59N 39°15' W 076°33'0 0.0
2018-Feb-18 23:29N 39°15' W 076°33'0 0.0
2018-Feb-18 22:59N 39°15' W 076°33'0 0.0
2018-Feb-18 22:29N 39°15' W 076°33'0 0.0
2018-Feb-18 21:59N 39°15' W 076°33'0 0.0
2018-Feb-18 21:29N 39°15' W 076°33'0 0.0
2018-Feb-18 20:59N 39°15' W 076°33'0 0.0
2018-Feb-18 20:29N 39°15' W 076°33'0 0.0
2018-Feb-18 19:59N 39°15' W 076°33'0 0.0
2018-Feb-18 19:29N 39°15' W 076°33'0 0.0
2018-Feb-18 18:59N 39°15' W 076°33'0 0.0
2018-Feb-18 18:29N 39°15' W 076°33'0 0.0
2018-Feb-18 17:59N 39°15' W 076°33'0 0.0
2018-Feb-18 17:29N 39°15' W 076°33'0 0.0
2018-Feb-18 16:59N 39°15' W 076°33'0 0.0
2018-Feb-18 16:29N 39°15' W 076°33'0 0.0
2018-Feb-18 16:00N 39°15' W 076°33'2 3.7
2018-Feb-18 15:31N 39°13' W 076°32'4 8.4
2018-Feb-18 15:00N 39°11' W 076°27'612.9
2018-Feb-18 14:30N 39°05' W 076°24'815.6
2018-Feb-18 14:01N 38°58' W 076°23'918.0
2018-Feb-18 13:30N 38°49' W 076°25'1019.1
2018-Feb-18 13:00N 38°39' W 076°25'8417.7
2018-Feb-18 08:17N 37°16' W 076°07'516.6
2018-Feb-18 08:00N 37°12' W 076°09'916.3
2018-Feb-18 07:27N 37°04' W 076°05'915.9
2018-Feb-18 06:54N 36°57' W 075°58'411.2
2018-Feb-18 06:30N 36°54' W 075°54'5 9.7
2018-Feb-18 05:59N 36°51' W 075°49'5 9.6
2018-Feb-18 05:30N 36°49' W 075°44'19114.0
2018-Feb-17 15:52N 39°38' W 073°51'615.6
2018-Feb-17 15:27N 39°45' W 073°51'815.7
2018-Feb-17 14:55N 39°53' W 073°50'1115.7
2018-Feb-17 14:13N 40°04' W 073°50'2110.5
2018-Feb-17 12:10N 40°26' W 073°50'1 8.8
2018-Feb-17 12:00N 40°27' W 073°50'5 9.4
2018-Feb-17 11:30N 40°30' W 073°56'612.1
2018-Feb-17 11:00N 40°33' W 074°02'612.1
2018-Feb-17 10:30N 40°39' W 074°05'3 5.4
2018-Feb-17 10:00N 40°39' W 074°08'1 2.9
2018-Feb-17 09:30N 40°40' W 074°08'0 0.4
2018-Feb-17 08:58N 40°40' W 074°09'0 0.0
2018-Feb-17 08:28N 40°40' W 074°09'0 0.0
2018-Feb-17 07:58N 40°40' W 074°09'0 0.0
2018-Feb-17 07:28N 40°40' W 074°09'0 0.0
2018-Feb-17 06:58N 40°40' W 074°09'0 0.0
2018-Feb-17 06:28N 40°40' W 074°09'0 0.0
2018-Feb-17 05:58N 40°40' W 074°09'0 0.0
2018-Feb-17 05:28N 40°40' W 074°09'0 0.0
2018-Feb-17 04:58N 40°40' W 074°09'0 0.0
2018-Feb-17 04:28N 40°40' W 074°09'0 0.0
2018-Feb-17 03:58N 40°40' W 074°09'0 0.0
2018-Feb-17 03:28N 40°40' W 074°09'0 0.0
2018-Feb-17 02:58N 40°40' W 074°09'0 0.0
2018-Feb-17 02:28N 40°40' W 074°09'0 0.0
2018-Feb-17 01:58N 40°40' W 074°09'0 0.0
2018-Feb-17 01:28N 40°40' W 074°09'0 0.0
2018-Feb-17 00:55N 40°40' W 074°09'0 0.0
2018-Feb-17 00:25N 40°40' W 074°09'0 0.0
2018-Feb-16 23:58N 40°40' W 074°09'0 0.0
2018-Feb-16 23:28N 40°40' W 074°09'0 0.0
2018-Feb-16 22:58N 40°40' W 074°09'0 0.0
2018-Feb-16 22:28N 40°40' W 074°09'0 0.0
2018-Feb-16 21:58N 40°40' W 074°09'0 0.0
2018-Feb-16 21:28N 40°40' W 074°09'0 0.0
2018-Feb-16 20:58N 40°40' W 074°09'0 0.0
2018-Feb-16 20:28N 40°40' W 074°09'0 0.0
2018-Feb-16 19:58N 40°40' W 074°09'0 0.0
2018-Feb-16 19:28N 40°40' W 074°09'0 0.0
2018-Feb-16 18:58N 40°40' W 074°09'0 0.0
2018-Feb-16 18:28N 40°40' W 074°09'0 0.0
2018-Feb-16 17:58N 40°40' W 074°09'0 0.0
2018-Feb-16 17:28N 40°40' W 074°09'0 0.0
2018-Feb-16 16:58N 40°40' W 074°09'0 0.0
2018-Feb-16 16:25N 40°40' W 074°09'0 0.0
2018-Feb-16 16:01N 40°40' W 074°09'0 0.0
2018-Feb-16 15:28N 40°40' W 074°09'0 0.0
2018-Feb-16 15:00N 40°40' W 074°09'0 0.0
2018-Feb-16 14:30N 40°40' W 074°09'0 0.0
2018-Feb-16 14:00N 40°40' W 074°09'0 0.0
2018-Feb-16 13:30N 40°40' W 074°09'0 0.0
2018-Feb-16 13:00N 40°40' W 074°09'0 0.0
2018-Feb-16 12:30N 40°40' W 074°09'0 0.0
2018-Feb-16 12:00N 40°40' W 074°09'0 0.0
2018-Feb-16 11:30N 40°40' W 074°09'0 0.0
2018-Feb-16 11:00N 40°40' W 074°09'0 0.0
2018-Feb-16 10:30N 40°40' W 074°09'0 0.0
2018-Feb-16 10:00N 40°40' W 074°09'0 0.0
2018-Feb-16 09:30N 40°40' W 074°09'0 0.0
2018-Feb-16 09:00N 40°40' W 074°09'0 0.0
2018-Feb-16 08:30N 40°40' W 074°09'0 0.0
2018-Feb-16 08:00N 40°40' W 074°09'0 0.0
2018-Feb-16 07:30N 40°40' W 074°09'0 0.0
2018-Feb-16 07:00N 40°40' W 074°09'0 0.0
2018-Feb-16 06:30N 40°40' W 074°09'0 0.0
2018-Feb-16 06:00N 40°40' W 074°09'0 0.0
2018-Feb-16 05:30N 40°40' W 074°09'0 0.0
2018-Feb-16 05:00N 40°40' W 074°09'0 0.0
2018-Feb-16 04:30N 40°40' W 074°09'0 0.0
2018-Feb-16 04:00N 40°40' W 074°09'0 0.0
2018-Feb-16 03:30N 40°40' W 074°09'0 0.0
2018-Feb-16 03:00N 40°40' W 074°09'0 0.0
2018-Feb-16 02:30N 40°40' W 074°09'0 0.0
2018-Feb-16 02:00N 40°40' W 074°09'0 0.0
2018-Feb-16 01:30N 40°40' W 074°09'0 0.0
2018-Feb-16 01:00N 40°40' W 074°09'0 0.0
2018-Feb-16 00:30N 40°40' W 074°09'0 0.0
2018-Feb-16 00:00N 40°40' W 074°09'0 0.0
2018-Feb-15 23:30N 40°40' W 074°09'0 0.0
2018-Feb-15 23:00N 40°40' W 074°09'0 0.0
2018-Feb-15 22:30N 40°40' W 074°09'0 0.0
2018-Feb-15 22:00N 40°40' W 074°09'0 0.0
2018-Feb-15 21:30N 40°40' W 074°09'0 0.0
2018-Feb-15 21:00N 40°40' W 074°09'0 0.0
2018-Feb-15 20:30N 40°40' W 074°09'0 0.0
2018-Feb-15 20:00N 40°40' W 074°09'0 0.0
2018-Feb-15 19:30N 40°40' W 074°09'0 0.0
2018-Feb-15 19:00N 40°40' W 074°09'0 0.0
2018-Feb-15 18:30N 40°40' W 074°09'0 0.0
2018-Feb-15 18:00N 40°40' W 074°09'0 0.0
2018-Feb-15 17:30N 40°40' W 074°09'0 0.0
2018-Feb-15 17:00N 40°40' W 074°09'0 0.0
2018-Feb-15 16:30N 40°40' W 074°09'0 0.0
2018-Feb-15 16:00N 40°40' W 074°09'0 0.0
2018-Feb-15 15:30N 40°40' W 074°09'0 0.0
2018-Feb-15 15:00N 40°40' W 074°09'0 0.0
2018-Feb-15 14:30N 40°40' W 074°09'0 0.0
2018-Feb-15 14:00N 40°40' W 074°09'0 0.0
2018-Feb-15 13:30N 40°40' W 074°09'0 0.0
2018-Feb-15 13:00N 40°40' W 074°09'0 0.0
2018-Feb-15 12:30N 40°40' W 074°09'0 0.0
2018-Feb-15 11:54N 40°40' W 074°09'1 1.5
2018-Feb-15 11:30N 40°39' W 074°09'2 3.3
2018-Feb-15 11:00N 40°39' W 074°07'3 5.2
2018-Feb-15 10:30N 40°39' W 074°03'3 5.4
2018-Feb-15 10:00N 40°36' W 074°02'3 6.4
2018-Feb-15 09:31N 40°33' W 074°02'3 6.9
2018-Feb-15 09:01N 40°31' W 073°58'5 9.8
2018-Feb-15 08:31N 40°28' W 073°52'5 9.3
2018-Feb-15 07:59N 40°25' W 073°47'5 9.3
2018-Feb-15 07:30N 40°21' W 073°46'4 6.9
2018-Feb-15 06:58N 40°17' W 073°46'4 7.2
2018-Feb-15 06:23N 40°13' W 073°45'  
Track history (hours):
 
Tides and Currents Weather Stations Pressure Air Temp Water Temp Dewpoint Dewpoint Depression Visibility Wind Speed Wind Dir Waves Ship Positions

Maersk Sheerness

Last reported at 2018-Feb-21 22:49 UTC. Time now 2018-Feb-22 13:07 UTC.
Position N 36°51' W 075°52'.

Length 335 m; draft 12.5 m.

Type: Ship (hazmat cat A). MMSI: 563001100.

Date/timePositionNaut miles runAvg speedWind from/ knotsBaromVisibWave heightAir tempDewpointWater temp
2018-Feb-21 22:49N 36°51' W 075°52'3 9.4
2018-Feb-21 22:30N 36°54' W 075°54'5 9.3
2018-Feb-21 22:00N 36°57' W 075°58'611.0
2018-Feb-21 21:30N 37°01' W 076°03'815.0
2018-Feb-21 21:00N 37°07' W 076°08'814.0
2018-Feb-21 20:27N 37°15' W 076°08'914.6
2018-Feb-21 19:52N 37°23' W 076°05'2913.9
2018-Feb-21 17:45N 37°52' W 076°09'816.6
2018-Feb-21 17:16N 38°00' W 076°12'517.3
2018-Feb-21 16:58N 38°06' W 076°13'817.1
2018-Feb-21 16:28N 38°14' W 076°15'3116.6
2018-Feb-21 14:36N 38°44' W 076°26'315.1
2018-Feb-21 14:26N 38°46' W 076°26'512.6
2018-Feb-21 14:00N 38°51' W 076°24'612.1
2018-Feb-21 13:30N 38°57' W 076°23'4 8.0
2018-Feb-21 13:00N 39°01' W 076°23'4 7.1
2018-Feb-21 12:30N 39°05' W 076°24'4 8.2
2018-Feb-21 12:00N 39°09' W 076°25'5 9.0
2018-Feb-21 11:29N 39°12' W 076°29'3 6.7
2018-Feb-21 11:00N 39°14' W 076°32'1 2.1
2018-Feb-21 10:30N 39°15' W 076°32'0 0.3
2018-Feb-21 10:00N 39°15' W 076°32'0 0.0
2018-Feb-21 09:30N 39°15' W 076°32'0 0.0
2018-Feb-21 09:00N 39°15' W 076°32'0 0.0
2018-Feb-21 08:30N 39°15' W 076°32'0 0.0
2018-Feb-21 08:00N 39°15' W 076°32'0 0.0
2018-Feb-21 07:30N 39°15' W 076°32'0 0.0
2018-Feb-21 07:00N 39°15' W 076°32'0 0.0
2018-Feb-21 06:30N 39°15' W 076°32'0 0.0
2018-Feb-21 06:00N 39°15' W 076°32'0 0.0
2018-Feb-21 05:30N 39°15' W 076°32'0 0.0
2018-Feb-21 05:00N 39°15' W 076°32'0 0.0
2018-Feb-21 04:30N 39°15' W 076°32'0 0.0
2018-Feb-21 04:00N 39°15' W 076°32'0 0.0
2018-Feb-21 03:30N 39°15' W 076°32'0 0.0
2018-Feb-21 03:00N 39°15' W 076°32'0 0.0
2018-Feb-21 02:30N 39°15' W 076°32'0 0.0
2018-Feb-21 01:57N 39°15' W 076°32'0 0.0
2018-Feb-21 01:30N 39°15' W 076°32'0 0.0
2018-Feb-21 01:00N 39°15' W 076°32'0 0.0
2018-Feb-21 00:30N 39°15' W 076°32'0 0.0
2018-Feb-21 00:00N 39°15' W 076°32'0 0.0
2018-Feb-20 23:30N 39°15' W 076°32'0 0.0
2018-Feb-20 22:57N 39°15' W 076°32'0 0.0
2018-Feb-20 22:30N 39°15' W 076°32'0 0.0
2018-Feb-20 22:00N 39°15' W 076°32'0 0.0
2018-Feb-20 21:30N 39°15' W 076°32'0 0.0
2018-Feb-20 21:00N 39°15' W 076°32'0 0.0
2018-Feb-20 20:30N 39°15' W 076°32'0 0.0
2018-Feb-20 20:00N 39°15' W 076°32'0 0.0
2018-Feb-20 19:30N 39°15' W 076°32'0 0.0
2018-Feb-20 19:00N 39°15' W 076°32'0 0.0
2018-Feb-20 18:30N 39°15' W 076°32'0 0.0
2018-Feb-20 17:59N 39°15' W 076°32'0 0.0
2018-Feb-20 17:29N 39°15' W 076°32'0 0.0
2018-Feb-20 16:59N 39°15' W 076°32'0 0.0
2018-Feb-20 16:29N 39°15' W 076°32'0 0.0
2018-Feb-20 15:59N 39°15' W 076°32'0 0.0
2018-Feb-20 15:29N 39°15' W 076°32'0 0.0
2018-Feb-20 14:59N 39°15' W 076°32'0 0.0
2018-Feb-20 14:29N 39°15' W 076°32'0 0.0
2018-Feb-20 14:00N 39°15' W 076°32'0 0.0
2018-Feb-20 13:30N 39°15' W 076°32'0 1.0
2018-Feb-20 13:00N 39°14' W 076°33'0 0.4
2018-Feb-20 12:30N 39°15' W 076°33'0 0.8
2018-Feb-20 12:00N 39°15' W 076°33'0 0.0
2018-Feb-20 11:30N 39°15' W 076°33'0 0.0
2018-Feb-20 11:00N 39°15' W 076°33'0 0.0
2018-Feb-20 10:30N 39°15' W 076°33'0 0.0
2018-Feb-20 10:00N 39°15' W 076°33'0 0.0
2018-Feb-20 09:30N 39°15' W 076°33'0 0.0
2018-Feb-20 09:00N 39°15' W 076°33'0 0.0
2018-Feb-20 08:30N 39°15' W 076°33'0 0.0
2018-Feb-20 08:00N 39°15' W 076°33'0 0.0
2018-Feb-20 07:30N 39°15' W 076°33'0 0.0
2018-Feb-20 07:00N 39°15' W 076°33'0 0.0
2018-Feb-20 06:30N 39°15' W 076°33'0 0.0
2018-Feb-20 06:00N 39°15' W 076°33'0 0.0
2018-Feb-20 05:30N 39°15' W 076°33'0 0.0
2018-Feb-20 05:00N 39°15' W 076°33'0 0.0
2018-Feb-20 04:30N 39°15' W 076°33'0 0.0
2018-Feb-20 04:00N 39°15' W 076°33'0 0.0
2018-Feb-20 03:30N 39°15' W 076°33'0 0.0
2018-Feb-20 03:00N 39°15' W 076°33'0 0.0
2018-Feb-20 02:30N 39°15' W 076°33'0 0.0
2018-Feb-20 02:00N 39°15' W 076°33'0 0.0
2018-Feb-20 01:30N 39°15' W 076°33'0 0.0
2018-Feb-20 01:00N 39°15' W 076°33'0 0.0
2018-Feb-20 00:30N 39°15' W 076°33'0 0.0
2018-Feb-20 00:00N 39°15' W 076°33'0 0.0
2018-Feb-19 23:30N 39°15' W 076°33'0 0.0
2018-Feb-19 23:00N 39°15' W 076°33'0 0.0
2018-Feb-19 22:30N 39°15' W 076°33'0 0.0
2018-Feb-19 22:00N 39°15' W 076°33'0 0.0
2018-Feb-19 21:30N 39°15' W 076°33'0 0.0
2018-Feb-19 21:00N 39°15' W 076°33'0 0.0
2018-Feb-19 20:30N 39°15' W 076°33'0 0.0
2018-Feb-19 20:00N 39°15' W 076°33'0 0.0
2018-Feb-19 19:30N 39°15' W 076°33'0 0.0
2018-Feb-19 19:00N 39°15' W 076°33'0 0.0
2018-Feb-19 18:30N 39°15' W 076°33'0 0.0
2018-Feb-19 18:00N 39°15' W 076°33'0 0.0
2018-Feb-19 17:30N 39°15' W 076°33'0 0.0
2018-Feb-19 17:00N 39°15' W 076°33'0 0.0
2018-Feb-19 16:30N 39°15' W 076°33'0 0.0
2018-Feb-19 16:00N 39°15' W 076°33'0 0.0
2018-Feb-19 15:30N 39°15' W 076°33'0 0.0
2018-Feb-19 15:00N 39°15' W 076°33'0 0.0
2018-Feb-19 14:30N 39°15' W 076°33'0 0.0
2018-Feb-19 14:00N 39°15' W 076°33'0 0.0
2018-Feb-19 13:30N 39°15' W 076°33'0 0.0
2018-Feb-19 13:00N 39°15' W 076°33'0 0.0
2018-Feb-19 12:30N 39°15' W 076°33'0 0.0
2018-Feb-19 12:00N 39°15' W 076°33'0 0.0
2018-Feb-19 11:30N 39°15' W 076°33'0 0.0
2018-Feb-19 11:00N 39°15' W 076°33'0 0.0
2018-Feb-19 10:30N 39°15' W 076°33'0 0.0
2018-Feb-19 09:57N 39°15' W 076°33'0 0.0
2018-Feb-19 09:30N 39°15' W 076°33'0 0.0
2018-Feb-19 09:00N 39°15' W 076°33'0 0.0
2018-Feb-19 08:30N 39°15' W 076°33'0 0.0
2018-Feb-19 07:57N 39°15' W 076°33'0 0.0
2018-Feb-19 07:27N 39°15' W 076°33'0 0.0
2018-Feb-19 06:59N 39°15' W 076°33'0 0.0
2018-Feb-19 06:27N 39°15' W 076°33'0 0.0
2018-Feb-19 05:57N 39°15' W 076°33'0 0.0
2018-Feb-19 05:27N 39°15' W 076°33'0 0.0
2018-Feb-19 04:56N 39°15' W 076°33'0 0.0
2018-Feb-19 04:14N 39°15' W 076°33'0 0.0
2018-Feb-19 03:59N 39°15' W 076°33'0 0.0
2018-Feb-19 03:26N 39°15' W 076°33'0 0.0
2018-Feb-19 02:57N 39°15' W 076°33'0 0.0
2018-Feb-19 02:30N 39°15' W 076°33'0 0.0
2018-Feb-19 01:59N 39°15' W 076°33'0 0.0
2018-Feb-19 01:29N 39°15' W 076°33'0 0.0
2018-Feb-19 00:59N 39°15' W 076°33'0 0.0
2018-Feb-19 00:29N 39°15' W 076°33'0 0.0
2018-Feb-18 23:59N 39°15' W 076°33'0 0.0
2018-Feb-18 23:29N 39°15' W 076°33'0 0.0
2018-Feb-18 22:59N 39°15' W 076°33'0 0.0
2018-Feb-18 22:29N 39°15' W 076°33'0 0.0
2018-Feb-18 21:59N 39°15' W 076°33'0 0.0
2018-Feb-18 21:29N 39°15' W 076°33'0 0.0
2018-Feb-18 20:59N 39°15' W 076°33'0 0.0
2018-Feb-18 20:29N 39°15' W 076°33'0 0.0
2018-Feb-18 19:59N 39°15' W 076°33'0 0.0
2018-Feb-18 19:29N 39°15' W 076°33'0 0.0
2018-Feb-18 18:59N 39°15' W 076°33'0 0.0
2018-Feb-18 18:29N 39°15' W 076°33'0 0.0
2018-Feb-18 17:59N 39°15' W 076°33'0 0.0
2018-Feb-18 17:29N 39°15' W 076°33'0 0.0
2018-Feb-18 16:59N 39°15' W 076°33'0 0.0
2018-Feb-18 16:29N 39°15' W 076°33'0 0.0
2018-Feb-18 16:00N 39°15' W 076°33'2 3.7
2018-Feb-18 15:31N 39°13' W 076°32'4 8.4
2018-Feb-18 15:00N 39°11' W 076°27'612.9
2018-Feb-18 14:30N 39°05' W 076°24'815.6
2018-Feb-18 14:01N 38°58' W 076°23'918.0
2018-Feb-18 13:30N 38°49' W 076°25'1019.1
2018-Feb-18 13:00N 38°39' W 076°25'8417.7
2018-Feb-18 08:17N 37°16' W 076°07'516.6
2018-Feb-18 08:00N 37°12' W 076°09'916.3
2018-Feb-18 07:27N 37°04' W 076°05'915.9
2018-Feb-18 06:54N 36°57' W 075°58'411.2
2018-Feb-18 06:30N 36°54' W 075°54'5 9.7
2018-Feb-18 05:59N 36°51' W 075°49'5 9.6
2018-Feb-18 05:30N 36°49' W 075°44'19114.0
2018-Feb-17 15:52N 39°38' W 073°51'615.6
2018-Feb-17 15:27N 39°45' W 073°51'815.7
2018-Feb-17 14:55N 39°53' W 073°50'1115.7
2018-Feb-17 14:13N 40°04' W 073°50'2110.5
2018-Feb-17 12:10N 40°26' W 073°50'1 8.8
2018-Feb-17 12:00N 40°27' W 073°50'5 9.4
2018-Feb-17 11:30N 40°30' W 073°56'612.1
2018-Feb-17 11:00N 40°33' W 074°02'612.1
2018-Feb-17 10:30N 40°39' W 074°05'3 5.4
2018-Feb-17 10:00N 40°39' W 074°08'1 2.9
2018-Feb-17 09:30N 40°40' W 074°08'0 0.4
2018-Feb-17 08:58N 40°40' W 074°09'0 0.0
2018-Feb-17 08:28N 40°40' W 074°09'0 0.0
2018-Feb-17 07:58N 40°40' W 074°09'0 0.0
2018-Feb-17 07:28N 40°40' W 074°09'0 0.0
2018-Feb-17 06:58N 40°40' W 074°09'0 0.0
2018-Feb-17 06:28N 40°40' W 074°09'0 0.0
2018-Feb-17 05:58N 40°40' W 074°09'0 0.0
2018-Feb-17 05:28N 40°40' W 074°09'0 0.0
2018-Feb-17 04:58N 40°40' W 074°09'0 0.0
2018-Feb-17 04:28N 40°40' W 074°09'0 0.0
2018-Feb-17 03:58N 40°40' W 074°09'0 0.0
2018-Feb-17 03:28N 40°40' W 074°09'0 0.0
2018-Feb-17 02:58N 40°40' W 074°09'0 0.0
2018-Feb-17 02:28N 40°40' W 074°09'0 0.0
2018-Feb-17 01:58N 40°40' W 074°09'0 0.0
2018-Feb-17 01:28N 40°40' W 074°09'0 0.0
2018-Feb-17 00:55N 40°40' W 074°09'0 0.0
2018-Feb-17 00:25N 40°40' W 074°09'0 0.0
2018-Feb-16 23:58N 40°40' W 074°09'0 0.0
2018-Feb-16 23:28N 40°40' W 074°09'0 0.0
2018-Feb-16 22:58N 40°40' W 074°09'0 0.0
2018-Feb-16 22:28N 40°40' W 074°09'0 0.0
2018-Feb-16 21:58N 40°40' W 074°09'0 0.0
2018-Feb-16 21:28N 40°40' W 074°09'0 0.0
2018-Feb-16 20:58N 40°40' W 074°09'0 0.0
2018-Feb-16 20:28N 40°40' W 074°09'0 0.0
2018-Feb-16 19:58N 40°40' W 074°09'0 0.0
2018-Feb-16 19:28N 40°40' W 074°09'0 0.0
2018-Feb-16 18:58N 40°40' W 074°09'0 0.0
2018-Feb-16 18:28N 40°40' W 074°09'0 0.0
2018-Feb-16 17:58N 40°40' W 074°09'0 0.0
2018-Feb-16 17:28N 40°40' W 074°09'0 0.0
2018-Feb-16 16:58N 40°40' W 074°09'0 0.0
2018-Feb-16 16:25N 40°40' W 074°09'0 0.0
2018-Feb-16 16:01N 40°40' W 074°09'0 0.0
2018-Feb-16 15:28N 40°40' W 074°09'0 0.0
2018-Feb-16 15:00N 40°40' W 074°09'0 0.0
2018-Feb-16 14:30N 40°40' W 074°09'0 0.0
2018-Feb-16 14:00N 40°40' W 074°09'0 0.0
2018-Feb-16 13:30N 40°40' W 074°09'0 0.0
2018-Feb-16 13:00N 40°40' W 074°09'0 0.0
2018-Feb-16 12:30N 40°40' W 074°09'0 0.0
2018-Feb-16 12:00N 40°40' W 074°09'0 0.0
2018-Feb-16 11:30N 40°40' W 074°09'0 0.0
2018-Feb-16 11:00N 40°40' W 074°09'0 0.0
2018-Feb-16 10:30N 40°40' W 074°09'0 0.0
2018-Feb-16 10:00N 40°40' W 074°09'0 0.0
2018-Feb-16 09:30N 40°40' W 074°09'0 0.0
2018-Feb-16 09:00N 40°40' W 074°09'0 0.0
2018-Feb-16 08:30N 40°40' W 074°09'0 0.0
2018-Feb-16 08:00N 40°40' W 074°09'0 0.0
2018-Feb-16 07:30N 40°40' W 074°09'0 0.0
2018-Feb-16 07:00N 40°40' W 074°09'0 0.0
2018-Feb-16 06:30N 40°40' W 074°09'0 0.0
2018-Feb-16 06:00N 40°40' W 074°09'0 0.0
2018-Feb-16 05:30N 40°40' W 074°09'0 0.0
2018-Feb-16 05:00N 40°40' W 074°09'0 0.0
2018-Feb-16 04:30N 40°40' W 074°09'0 0.0
2018-Feb-16 04:00N 40°40' W 074°09'0 0.0
2018-Feb-16 03:30N 40°40' W 074°09'0 0.0
2018-Feb-16 03:00N 40°40' W 074°09'0 0.0
2018-Feb-16 02:30N 40°40' W 074°09'0 0.0
2018-Feb-16 02:00N 40°40' W 074°09'0 0.0
2018-Feb-16 01:30N 40°40' W 074°09'0 0.0
2018-Feb-16 01:00N 40°40' W 074°09'0 0.0
2018-Feb-16 00:30N 40°40' W 074°09'0 0.0
2018-Feb-16 00:00N 40°40' W 074°09'0 0.0
2018-Feb-15 23:30N 40°40' W 074°09'0 0.0
2018-Feb-15 23:00N 40°40' W 074°09'0 0.0
2018-Feb-15 22:30N 40°40' W 074°09'0 0.0
2018-Feb-15 22:00N 40°40' W 074°09'0 0.0
2018-Feb-15 21:30N 40°40' W 074°09'0 0.0
2018-Feb-15 21:00N 40°40' W 074°09'0 0.0
2018-Feb-15 20:30N 40°40' W 074°09'0 0.0
2018-Feb-15 20:00N 40°40' W 074°09'0 0.0
2018-Feb-15 19:30N 40°40' W 074°09'0 0.0
2018-Feb-15 19:00N 40°40' W 074°09'0 0.0
2018-Feb-15 18:30N 40°40' W 074°09'0 0.0
2018-Feb-15 18:00N 40°40' W 074°09'0 0.0
2018-Feb-15 17:30N 40°40' W 074°09'0 0.0
2018-Feb-15 17:00N 40°40' W 074°09'0 0.0
2018-Feb-15 16:30N 40°40' W 074°09'0 0.0
2018-Feb-15 16:00N 40°40' W 074°09'0 0.0
2018-Feb-15 15:30N 40°40' W 074°09'0 0.0
2018-Feb-15 15:00N 40°40' W 074°09'0 0.0
2018-Feb-15 14:30N 40°40' W 074°09'0 0.0
2018-Feb-15 14:00N 40°40' W 074°09'0 0.0
2018-Feb-15 13:30N 40°40' W 074°09'0 0.0
2018-Feb-15 13:00N 40°40' W 074°09'0 0.0
2018-Feb-15 12:30N 40°40' W 074°09'0 0.0
2018-Feb-15 11:54N 40°40' W 074°09'1 1.5
2018-Feb-15 11:30N 40°39' W 074°09'2 3.3
2018-Feb-15 11:00N 40°39' W 074°07'3 5.2
2018-Feb-15 10:30N 40°39' W 074°03'3 5.4
2018-Feb-15 10:00N 40°36' W 074°02'3 6.4
2018-Feb-15 09:31N 40°33' W 074°02'3 6.9
2018-Feb-15 09:01N 40°31' W 073°58'5 9.8
2018-Feb-15 08:31N 40°28' W 073°52'5 9.3
2018-Feb-15 07:59N 40°25' W 073°47'5 9.3
2018-Feb-15 07:30N 40°21' W 073°46'4 6.9
2018-Feb-15 06:58N 40°17' W 073°46'4 7.2
2018-Feb-15 06:23N 40°13' W 073°45'  

Dump ship's entire track history